sensor_id;sensor_type;location;lat;lon;timestamp;pressure;altitude;pressure_sealevel;temperature;humidity
21821;BME280;11073;48.586;12.066;2023-05-10T00:01:53;95787.91;;;17.52;51.19
21821;BME280;11073;48.586;12.066;2023-05-10T00:04:22;95788.00;;;17.47;51.27
21821;BME280;11073;48.586;12.066;2023-05-10T00:06:54;95788.81;;;17.29;51.29
21821;BME280;11073;48.586;12.066;2023-05-10T00:09:23;95789.72;;;17.24;51.61
21821;BME280;11073;48.586;12.066;2023-05-10T00:11:52;95787.94;;;17.15;51.78
21821;BME280;11073;48.586;12.066;2023-05-10T00:14:21;95795.63;;;17.13;52.22
21821;BME280;11073;48.586;12.066;2023-05-10T00:16:50;95780.19;;;17.03;52.60
21821;BME280;11073;48.586;12.066;2023-05-10T00:19:20;95782.84;;;16.89;53.30
21821;BME280;11073;48.586;12.066;2023-05-10T00:21:49;95790.59;;;16.82;53.84
21821;BME280;11073;48.586;12.066;2023-05-10T00:24:17;95785.03;;;16.87;54.19
21821;BME280;11073;48.586;12.066;2023-05-10T00:26:46;95786.59;;;16.74;54.25
21821;BME280;11073;48.586;12.066;2023-05-10T00:29:15;95784.84;;;16.60;54.41
21821;BME280;11073;48.586;12.066;2023-05-10T00:31:44;95791.69;;;16.57;55.05
21821;BME280;11073;48.586;12.066;2023-05-10T00:34:12;95800.44;;;16.59;55.43
21821;BME280;11073;48.586;12.066;2023-05-10T00:36:43;95792.97;;;16.65;55.71
21821;BME280;11073;48.586;12.066;2023-05-10T00:39:11;95801.97;;;16.65;56.10
21821;BME280;11073;48.586;12.066;2023-05-10T00:41:40;95792.97;;;16.65;56.26
21821;BME280;11073;48.586;12.066;2023-05-10T00:44:09;95791.41;;;16.59;56.40
21821;BME280;11073;48.586;12.066;2023-05-10T00:46:38;95790.31;;;16.60;56.59
21821;BME280;11073;48.586;12.066;2023-05-10T00:49:07;95789.19;;;16.61;56.26
21821;BME280;11073;48.586;12.066;2023-05-10T00:51:37;95786.00;;;16.53;56.45
21821;BME280;11073;48.586;12.066;2023-05-10T00:54:07;95789.75;;;16.58;56.64
21821;BME280;11073;48.586;12.066;2023-05-10T00:56:36;95791.94;;;16.61;56.67
21821;BME280;11073;48.586;12.066;2023-05-10T00:59:05;95790.97;;;16.51;56.80
21821;BME280;11073;48.586;12.066;2023-05-10T01:01:34;95794.50;;;16.28;57.04
21821;BME280;11073;48.586;12.066;2023-05-10T01:04:05;95786.63;;;16.21;57.14
21821;BME280;11073;48.586;12.066;2023-05-10T01:06:33;95795.03;;;16.30;57.61
21821;BME280;11073;48.586;12.066;2023-05-10T01:09:02;95801.34;;;16.25;57.79
21821;BME280;11073;48.586;12.066;2023-05-10T01:11:33;95798.97;;;16.19;58.06
21821;BME280;11073;48.586;12.066;2023-05-10T01:14:02;95805.19;;;16.24;58.38
21821;BME280;11073;48.586;12.066;2023-05-10T01:16:33;95800.03;;;16.23;58.71
21821;BME280;11073;48.586;12.066;2023-05-10T01:19:06;95803.22;;;16.30;58.95
21821;BME280;11073;48.586;12.066;2023-05-10T01:21:43;95798.56;;;16.31;59.15
21821;BME280;11073;48.586;12.066;2023-05-10T01:24:54;95796.88;;;16.35;59.82
21821;BME280;11073;48.586;12.066;2023-05-10T01:28:02;95794.91;;;16.40;59.78
21821;BME280;11073;48.586;12.066;2023-05-10T01:31:03;95792.94;;;16.46;60.11
21821;BME280;11073;48.586;12.066;2023-05-10T01:33:35;95792.63;;;16.47;60.43
21821;BME280;11073;48.586;12.066;2023-05-10T01:36:13;95786.56;;;16.50;60.81
21821;BME280;11073;48.586;12.066;2023-05-10T01:38:49;95778.38;;;16.50;61.11
21821;BME280;11073;48.586;12.066;2023-05-10T01:41:25;95783.28;;;16.53;61.47
21821;BME280;11073;48.586;12.066;2023-05-10T01:44:04;95786.47;;;16.61;61.53
21821;BME280;11073;48.586;12.066;2023-05-10T01:46:37;95777.75;;;16.59;61.82
21821;BME280;11073;48.586;12.066;2023-05-10T01:49:09;95776.28;;;16.66;61.96
21821;BME280;11073;48.586;12.066;2023-05-10T01:51:44;95779.84;;;16.67;62.11
21821;BME280;11073;48.586;12.066;2023-05-10T01:54:17;95780.31;;;16.74;62.15
21821;BME280;11073;48.586;12.066;2023-05-10T01:56:50;95784.38;;;16.76;62.09
21821;BME280;11073;48.586;12.066;2023-05-10T01:59:21;95775.06;;;16.77;62.59
21821;BME280;11073;48.586;12.066;2023-05-10T02:01:52;95782.16;;;16.78;62.65
21821;BME280;11073;48.586;12.066;2023-05-10T02:04:27;95782.16;;;16.78;62.76
21821;BME280;11073;48.586;12.066;2023-05-10T02:06:57;95784.31;;;16.81;63.04
21821;BME280;11073;48.586;12.066;2023-05-10T02:09:27;95780.22;;;16.79;63.29
21821;BME280;11073;48.586;12.066;2023-05-10T02:11:58;95784.09;;;16.78;63.67
21821;BME280;11073;48.586;12.066;2023-05-10T02:14:28;95788.44;;;16.79;63.41
21821;BME280;11073;48.586;12.066;2023-05-10T02:16:59;95785.94;;;16.83;63.64
21821;BME280;11073;48.586;12.066;2023-05-10T02:19:32;95782.47;;;16.77;63.71
21821;BME280;11073;48.586;12.066;2023-05-10T02:22:02;95788.03;;;16.67;64.12
21821;BME280;11073;48.586;12.066;2023-05-10T02:24:33;95786.00;;;16.53;64.52
21821;BME280;11073;48.586;12.066;2023-05-10T02:27:04;95780.59;;;16.48;64.76
21821;BME280;11073;48.586;12.066;2023-05-10T02:29:36;95784.78;;;16.41;65.15
21821;BME280;11073;48.586;12.066;2023-05-10T02:32:05;95787.66;;;16.31;65.50
21821;BME280;11073;48.586;12.066;2023-05-10T02:34:36;95791.91;;;16.37;65.69
21821;BME280;11073;48.586;12.066;2023-05-10T02:37:05;95792.16;;;16.40;65.92
21821;BME280;11073;48.586;12.066;2023-05-10T02:39:34;95785.31;;;16.43;66.18
21821;BME280;11073;48.586;12.066;2023-05-10T02:42:03;95779.28;;;16.46;66.42
21821;BME280;11073;48.586;12.066;2023-05-10T02:44:34;95782.00;;;16.46;66.48
21821;BME280;11073;48.586;12.066;2023-05-10T02:47:04;95784.19;;;16.44;66.90
21821;BME280;11073;48.586;12.066;2023-05-10T02:49:33;95782.31;;;16.44;67.01
21821;BME280;11073;48.586;12.066;2023-05-10T02:52:05;95778.72;;;16.44;67.07
21821;BME280;11073;48.586;12.066;2023-05-10T02:54:40;95788.94;;;16.38;67.17
21821;BME280;11073;48.586;12.066;2023-05-10T02:58:09;95787.00;;;16.39;67.67
21821;BME280;11073;48.586;12.066;2023-05-10T03:00:38;95785.66;;;16.36;67.65
21821;BME280;11073;48.586;12.066;2023-05-10T03:03:08;95794.72;;;16.32;68.05
21821;BME280;11073;48.586;12.066;2023-05-10T03:05:36;95790.66;;;16.29;68.16
21821;BME280;11073;48.586;12.066;2023-05-10T03:08:07;95788.50;;;16.26;68.49
21821;BME280;11073;48.586;12.066;2023-05-10T03:10:50;95795.28;;;16.28;68.68
21821;BME280;11073;48.586;12.066;2023-05-10T03:13:29;95788.03;;;16.19;68.89
21821;BME280;11073;48.586;12.066;2023-05-10T03:16:07;95791.38;;;16.16;69.12
21821;BME280;11073;48.586;12.066;2023-05-10T03:18:42;95793.00;;;16.17;69.44
21821;BME280;11073;48.586;12.066;2023-05-10T03:21:13;95792.41;;;16.20;69.59
21821;BME280;11073;48.586;12.066;2023-05-10T03:23:56;95793.75;;;16.22;69.60
21821;BME280;11073;48.586;12.066;2023-05-10T03:26:27;95797.03;;;16.19;69.74
21821;BME280;11073;48.586;12.066;2023-05-10T03:29:05;95779.38;;;16.12;69.85
21821;BME280;11073;48.586;12.066;2023-05-10T03:31:34;95792.91;;;16.22;69.83
21821;BME280;11073;48.586;12.066;2023-05-10T03:34:04;95799.47;;;16.21;69.95
21821;BME280;11073;48.586;12.066;2023-05-10T03:36:33;95799.47;;;16.21;70.00
21821;BME280;11073;48.586;12.066;2023-05-10T03:39:03;95797.34;;;16.18;69.95
21821;BME280;11073;48.586;12.066;2023-05-10T03:41:33;95790.63;;;16.05;70.28
21821;BME280;11073;48.586;12.066;2023-05-10T03:44:02;95805.88;;;16.11;70.46
21821;BME280;11073;48.586;12.066;2023-05-10T03:46:30;95808.59;;;16.11;70.51
21821;BME280;11073;48.586;12.066;2023-05-10T03:48:59;95805.63;;;16.08;70.30
21821;BME280;11073;48.586;12.066;2023-05-10T03:51:28;95813.53;;;16.09;70.38
21821;BME280;11073;48.586;12.066;2023-05-10T03:53:59;95808.09;;;16.09;70.21
21821;BME280;11073;48.586;12.066;2023-05-10T03:56:29;95805.56;;;16.13;70.37
21821;BME280;11073;48.586;12.066;2023-05-10T03:58:58;95805.56;;;16.13;70.25
21821;BME280;11073;48.586;12.066;2023-05-10T04:01:27;95804.47;;;16.14;70.21
21821;BME280;11073;48.586;12.066;2023-05-10T04:03:56;95799.09;;;16.09;70.31
21821;BME280;11073;48.586;12.066;2023-05-10T04:06:24;95807.78;;;16.11;70.24
21821;BME280;11073;48.586;12.066;2023-05-10T04:08:54;95809.13;;;16.13;70.28
21821;BME280;11073;48.586;12.066;2023-05-10T04:11:23;95812.13;;;16.12;70.11
21821;BME280;11073;48.586;12.066;2023-05-10T04:13:53;95817.59;;;16.12;70.03
21821;BME280;11073;48.586;12.066;2023-05-10T04:16:21;95811.34;;;16.11;70.05
21821;BME280;11073;48.586;12.066;2023-05-10T04:18:50;95812.44;;;16.10;70.05
21821;BME280;11073;48.586;12.066;2023-05-10T04:21:18;95808.91;;;16.10;70.14
21821;BME280;11073;48.586;12.066;2023-05-10T04:23:48;95811.91;;;16.08;70.26
21821;BME280;11073;48.586;12.066;2023-05-10T04:26:17;95821.25;;;16.02;70.11
21821;BME280;11073;48.586;12.066;2023-05-10T04:28:45;95815.78;;;16.02;70.26
21821;BME280;11073;48.586;12.066;2023-05-10T04:31:15;95821.25;;;16.02;70.52
21821;BME280;11073;48.586;12.066;2023-05-10T04:33:44;95815.78;;;16.02;70.51
21821;BME280;11073;48.586;12.066;2023-05-10T04:36:13;95821.53;;;16.00;70.80
21821;BME280;11073;48.586;12.066;2023-05-10T04:38:41;95811.19;;;15.97;70.80
21821;BME280;11073;48.586;12.066;2023-05-10T04:41:11;95820.19;;;15.98;71.08
21821;BME280;11073;48.586;12.066;2023-05-10T04:43:40;95819.97;;;15.94;71.13
21821;BME280;11073;48.586;12.066;2023-05-10T04:46:09;95819.75;;;15.86;71.28
21821;BME280;11073;48.586;12.066;2023-05-10T04:48:39;95821.09;;;15.88;71.38
21821;BME280;11073;48.586;12.066;2023-05-10T04:51:08;95821.41;;;15.87;71.59
21821;BME280;11073;48.586;12.066;2023-05-10T04:53:36;95824.63;;;15.94;71.60
21821;BME280;11073;48.586;12.066;2023-05-10T04:56:06;95831.72;;;15.90;71.55
21821;BME280;11073;48.586;12.066;2023-05-10T04:58:35;95827.13;;;15.85;71.87
21821;BME280;11073;48.586;12.066;2023-05-10T05:01:07;95832.06;;;15.83;72.06
21821;BME280;11073;48.586;12.066;2023-05-10T05:03:39;95829.84;;;15.85;72.05
21821;BME280;11073;48.586;12.066;2023-05-10T05:06:08;95828.53;;;15.83;72.20
21821;BME280;11073;48.586;12.066;2023-05-10T05:08:38;95829.03;;;15.85;72.27
21821;BME280;11073;48.586;12.066;2023-05-10T05:11:06;95831.22;;;15.88;72.42
21821;BME280;11073;48.586;12.066;2023-05-10T05:13:35;95835.56;;;15.89;72.53
21821;BME280;11073;48.586;12.066;2023-05-10T05:16:05;95840.72;;;15.90;72.56
21821;BME280;11073;48.586;12.066;2023-05-10T05:18:33;95838.81;;;15.91;72.67
21821;BME280;11073;48.586;12.066;2023-05-10T05:21:13;95839.09;;;15.89;72.52
21821;BME280;11073;48.586;12.066;2023-05-10T05:23:43;95849.50;;;15.87;72.90
21821;BME280;11073;48.586;12.066;2023-05-10T05:26:12;95852.75;;;15.89;72.86
21821;BME280;11073;48.586;12.066;2023-05-10T05:28:42;95852.56;;;15.81;72.73
21821;BME280;11073;48.586;12.066;2023-05-10T05:31:11;95865.09;;;15.82;72.77
21821;BME280;11073;48.586;12.066;2023-05-10T05:33:40;95849.06;;;15.75;73.04
21821;BME280;11073;48.586;12.066;2023-05-10T05:36:11;95855.50;;;15.84;72.91
21821;BME280;11073;48.586;12.066;2023-05-10T05:38:39;95861.78;;;15.85;72.82
21821;BME280;11073;48.586;12.066;2023-05-10T05:41:08;95864.28;;;15.81;72.71
21821;BME280;11073;48.586;12.066;2023-05-10T05:43:37;95868.69;;;15.77;72.46
21821;BME280;11073;48.586;12.066;2023-05-10T05:46:06;95864.94;;;15.68;72.51
21821;BME280;11073;48.586;12.066;2023-05-10T05:48:34;95868.19;;;15.70;72.39
21821;BME280;11073;48.586;12.066;2023-05-10T05:51:03;95876.06;;;15.71;72.34
21821;BME280;11073;48.586;12.066;2023-05-10T05:53:35;95871.50;;;15.67;72.01
21821;BME280;11073;48.586;12.066;2023-05-10T05:56:04;95871.53;;;15.62;72.11
21821;BME280;11073;48.586;12.066;2023-05-10T05:58:33;95875.06;;;15.62;72.13
21821;BME280;11073;48.586;12.066;2023-05-10T06:01:01;95879.72;;;15.62;72.19
21821;BME280;11073;48.586;12.066;2023-05-10T06:03:39;95880.22;;;15.64;72.30
21821;BME280;11073;48.586;12.066;2023-05-10T06:06:09;95825.38;;;15.26;72.01
21821;BME280;11073;48.586;12.066;2023-05-10T06:08:40;95882.41;;;15.67;72.30
21821;BME280;11073;48.586;12.066;2023-05-10T06:11:08;95890.59;;;15.67;72.09
21821;BME280;11073;48.586;12.066;2023-05-10T06:13:37;95882.41;;;15.67;72.09
21821;BME280;11073;48.586;12.066;2023-05-10T06:16:06;95890.59;;;15.67;72.13
21821;BME280;11073;48.586;12.066;2023-05-10T06:18:34;95887.88;;;15.62;72.09
21821;BME280;11073;48.586;12.066;2023-05-10T06:21:03;95904.22;;;15.72;71.99
21821;BME280;11073;48.586;12.066;2023-05-10T06:23:33;95896.84;;;15.67;71.99
21821;BME280;11073;48.586;12.066;2023-05-10T06:26:04;95905.84;;;15.68;71.94
21821;BME280;11073;48.586;12.066;2023-05-10T06:28:32;95911.09;;;15.64;72.25
21821;BME280;11073;48.586;12.066;2023-05-10T06:31:01;95919.53;;;15.63;72.17
21821;BME280;11073;48.586;12.066;2023-05-10T06:33:31;95922.81;;;15.65;72.18
21821;BME280;11073;48.586;12.066;2023-05-10T06:35:59;95923.88;;;15.64;72.25
21821;BME280;11073;48.586;12.066;2023-05-10T06:38:28;95920.34;;;15.63;72.13
21821;BME280;11073;48.586;12.066;2023-05-10T06:40:57;95924.72;;;15.59;72.12
21821;BME280;11073;48.586;12.066;2023-05-10T06:43:27;95929.88;;;15.61;72.25
21821;BME280;11073;48.586;12.066;2023-05-10T06:45:57;95927.44;;;15.64;72.46
21821;BME280;11073;48.586;12.066;2023-05-10T06:48:26;95936.94;;;15.72;72.34
21821;BME280;11073;48.586;12.066;2023-05-10T06:50:54;95948.69;;;15.67;72.21
21821;BME280;11073;48.586;12.066;2023-05-10T06:53:23;95929.69;;;15.47;72.21
21821;BME280;11073;48.586;12.066;2023-05-10T06:55:51;95944.63;;;15.60;72.62
21821;BME280;11073;48.586;12.066;2023-05-10T06:58:20;95947.38;;;15.65;72.43
21821;BME280;11073;48.586;12.066;2023-05-10T07:00:50;95950.63;;;15.62;72.51
21821;BME280;11073;48.586;12.066;2023-05-10T07:03:19;95955.25;;;15.66;72.31
21821;BME280;11073;48.586;12.066;2023-05-10T07:05:48;95962.09;;;15.59;72.27
21821;BME280;11073;48.586;12.066;2023-05-10T07:08:16;95957.25;;;15.51;72.51
21821;BME280;11073;48.586;12.066;2023-05-10T07:10:45;95965.44;;;15.40;72.55
21821;BME280;11073;48.586;12.066;2023-05-10T07:13:14;95966.56;;;15.34;72.18
21821;BME280;11073;48.586;12.066;2023-05-10T07:15:43;95966.03;;;15.32;72.31
21821;BME280;11073;48.586;12.066;2023-05-10T07:18:13;95972.00;;;15.39;72.35
21821;BME280;11073;48.586;12.066;2023-05-10T07:20:42;95957.88;;;15.32;71.99
21821;BME280;11073;48.586;12.066;2023-05-10T07:23:11;95974.16;;;15.48;72.07
21821;BME280;11073;48.586;12.066;2023-05-10T07:25:40;95972.22;;;15.53;71.79
21821;BME280;11073;48.586;12.066;2023-05-10T07:28:09;95973.59;;;15.51;71.54
21821;BME280;11073;48.586;12.066;2023-05-10T07:30:38;95972.50;;;15.52;71.23
21821;BME280;11073;48.586;12.066;2023-05-10T07:33:06;95982.31;;;15.53;71.15
21821;BME280;11073;48.586;12.066;2023-05-10T07:35:37;95981.47;;;15.57;71.08
21821;BME280;11073;48.586;12.066;2023-05-10T07:38:06;95980.13;;;15.55;70.91
21821;BME280;11073;48.586;12.066;2023-05-10T07:40:35;95985.00;;;15.63;70.83
21821;BME280;11073;48.586;12.066;2023-05-10T07:43:03;95981.97;;;15.69;70.77
21821;BME280;11073;48.586;12.066;2023-05-10T07:45:33;95994.25;;;15.72;70.47
21821;BME280;11073;48.586;12.066;2023-05-10T07:48:01;95995.31;;;15.76;70.63
21821;BME280;11073;48.586;12.066;2023-05-10T07:50:30;95989.53;;;15.83;70.57
21821;BME280;11073;48.586;12.066;2023-05-10T07:53:00;96000.94;;;15.90;70.57
21821;BME280;11073;48.586;12.066;2023-05-10T07:55:29;95999.81;;;15.96;70.36
21821;BME280;11073;48.586;12.066;2023-05-10T07:57:58;96007.66;;;16.08;70.66
21821;BME280;11073;48.586;12.066;2023-05-10T08:00:28;96001.13;;;16.04;70.00
21821;BME280;11073;48.586;12.066;2023-05-10T08:02:57;96003.59;;;16.05;70.03
21821;BME280;11073;48.586;12.066;2023-05-10T08:05:26;96009.81;;;16.11;70.13
21821;BME280;11073;48.586;12.066;2023-05-10T08:07:55;96006.50;;;16.14;69.84
21821;BME280;11073;48.586;12.066;2023-05-10T08:10:25;96009.19;;;16.24;69.68
21821;BME280;11073;48.586;12.066;2023-05-10T08:12:54;96009.97;;;16.30;69.27
21821;BME280;11073;48.586;12.066;2023-05-10T08:15:23;96015.06;;;16.41;69.04
21821;BME280;11073;48.586;12.066;2023-05-10T08:17:52;96007.59;;;16.52;68.65
21821;BME280;11073;48.586;12.066;2023-05-10T08:20:21;96010.53;;;16.61;68.33
21821;BME280;11073;48.586;12.066;2023-05-10T08:22:50;96002.81;;;16.68;67.81
21821;BME280;11073;48.586;12.066;2023-05-10T08:25:19;96009.00;;;16.78;67.47
21821;BME280;11073;48.586;12.066;2023-05-10T08:27:49;96001.59;;;16.84;66.85
21821;BME280;11073;48.586;12.066;2023-05-10T08:30:18;96021.19;;;16.91;66.36
21821;BME280;11073;48.586;12.066;2023-05-10T08:32:46;96019.09;;;16.83;66.11
21821;BME280;11073;48.586;12.066;2023-05-10T08:35:16;96020.84;;;16.98;65.72
21821;BME280;11073;48.586;12.066;2023-05-10T08:37:45;96016.03;;;17.14;65.47
21821;BME280;11073;48.586;12.066;2023-05-10T08:40:14;96022.31;;;17.38;65.19
21821;BME280;11073;48.586;12.066;2023-05-10T08:42:47;96017.03;;;17.47;64.75
21821;BME280;11073;48.586;12.066;2023-05-10T08:45:22;96023.78;;;17.54;64.15
21821;BME280;11073;48.586;12.066;2023-05-10T08:47:52;96011.56;;;17.47;63.64
21821;BME280;11073;48.586;12.066;2023-05-10T08:50:21;96019.41;;;17.53;63.33
21821;BME280;11073;48.586;12.066;2023-05-10T08:52:53;96024.69;;;17.45;63.14
21821;BME280;11073;48.586;12.066;2023-05-10T08:55:24;96024.69;;;17.45;62.97
21821;BME280;11073;48.586;12.066;2023-05-10T08:57:53;96033.56;;;17.60;63.09
21821;BME280;11073;48.586;12.066;2023-05-10T09:00:23;96028.91;;;17.61;62.83
21821;BME280;11073;48.586;12.066;2023-05-10T09:02:52;96018.28;;;17.78;62.71
21821;BME280;11073;48.586;12.066;2023-05-10T09:05:22;96033.47;;;18.08;62.38
21821;BME280;11073;48.586;12.066;2023-05-10T09:07:52;96027.84;;;18.37;62.05
21821;BME280;11073;48.586;12.066;2023-05-10T09:10:22;96036.69;;;18.67;61.83
21821;BME280;11073;48.586;12.066;2023-05-10T09:12:53;96027.09;;;18.69;60.85
21821;BME280;11073;48.586;12.066;2023-05-10T09:15:27;96041.00;;;19.06;60.27
21821;BME280;11073;48.586;12.066;2023-05-10T09:17:56;96037.72;;;19.04;59.68
21821;BME280;11073;48.586;12.066;2023-05-10T09:20:27;96027.13;;;18.83;59.52
21821;BME280;11073;48.586;12.066;2023-05-10T09:22:56;96034.09;;;18.76;59.43
21821;BME280;11073;48.586;12.066;2023-05-10T09:25:27;96040.50;;;18.71;59.42
21821;BME280;11073;48.586;12.066;2023-05-10T09:27:55;96046.09;;;18.80;58.51
21821;BME280;11073;48.586;12.066;2023-05-10T09:30:27;96046.69;;;18.77;58.45
21821;BME280;11073;48.586;12.066;2023-05-10T09:32:57;96037.88;;;18.80;58.40
21821;BME280;11073;48.586;12.066;2023-05-10T09:35:28;96050.56;;;18.89;57.86
21821;BME280;11073;48.586;12.066;2023-05-10T09:37:59;96046.13;;;18.93;57.59
21821;BME280;11073;48.586;12.066;2023-05-10T09:40:29;96042.91;;;19.19;57.48
21821;BME280;11073;48.586;12.066;2023-05-10T09:43:00;96045.47;;;19.29;57.31
21821;BME280;11073;48.586;12.066;2023-05-10T09:45:31;96044.44;;;19.25;57.39
21821;BME280;11073;48.586;12.066;2023-05-10T09:48:03;96048.56;;;19.41;57.60
21821;BME280;11073;48.586;12.066;2023-05-10T09:50:32;96053.81;;;19.38;57.13
21821;BME280;11073;48.586;12.066;2023-05-10T09:53:03;96048.81;;;19.12;56.68
21821;BME280;11073;48.586;12.066;2023-05-10T09:55:42;96054.44;;;18.88;56.59
21821;BME280;11073;48.586;12.066;2023-05-10T09:58:12;96050.19;;;18.63;56.83
21821;BME280;11073;48.586;12.066;2023-05-10T10:00:44;96050.06;;;18.36;57.51
21821;BME280;11073;48.586;12.066;2023-05-10T10:03:16;96039.69;;;17.95;58.15
21821;BME280;11073;48.586;12.066;2023-05-10T10:05:46;96049.00;;;17.94;58.52
21821;BME280;11073;48.586;12.066;2023-05-10T10:08:15;96053.88;;;17.78;58.79
21821;BME280;11073;48.586;12.066;2023-05-10T10:10:44;96043.28;;;17.72;59.45
21821;BME280;11073;48.586;12.066;2023-05-10T10:13:13;96045.78;;;17.68;59.99
21821;BME280;11073;48.586;12.066;2023-05-10T10:15:43;96042.03;;;17.59;60.18
21821;BME280;11073;48.586;12.066;2023-05-10T10:18:13;96045.53;;;17.64;60.50
21821;BME280;11073;48.586;12.066;2023-05-10T10:20:43;96052.94;;;17.64;60.65
21821;BME280;11073;48.586;12.066;2023-05-10T10:23:12;96049.56;;;17.72;60.60
21821;BME280;11073;48.586;12.066;2023-05-10T10:25:44;96051.84;;;18.08;61.25
21821;BME280;11073;48.586;12.066;2023-05-10T10:28:22;96051.84;;;18.27;60.98
21821;BME280;11073;48.586;12.066;2023-05-10T10:31:00;96045.00;;;18.24;60.49
21821;BME280;11073;48.586;12.066;2023-05-10T10:33:41;96048.13;;;18.17;60.77
21821;BME280;11073;48.586;12.066;2023-05-10T10:36:16;96038.13;;;18.08;60.84
21821;BME280;11073;48.586;12.066;2023-05-10T10:38:58;96043.69;;;17.84;61.01
21821;BME280;11073;48.586;12.066;2023-05-10T10:41:33;96035.31;;;17.75;61.42
21821;BME280;11073;48.586;12.066;2023-05-10T10:44:38;96041.31;;;17.77;61.88
21821;BME280;11073;48.586;12.066;2023-05-10T10:47:21;96039.38;;;17.78;62.17
21821;BME280;11073;48.586;12.066;2023-05-10T10:50:06;96040.63;;;17.85;62.47
21821;BME280;11073;48.586;12.066;2023-05-10T10:52:36;96038.97;;;17.89;62.49
21821;BME280;11073;48.586;12.066;2023-05-10T10:55:24;96039.91;;;17.99;62.82
21821;BME280;11073;48.586;12.066;2023-05-10T10:57:56;96032.66;;;18.08;62.85
21821;BME280;11073;48.586;12.066;2023-05-10T11:00:30;96034.16;;;18.19;62.79
21821;BME280;11073;48.586;12.066;2023-05-10T11:03:04;96032.00;;;18.35;62.75
21821;BME280;11073;48.586;12.066;2023-05-10T11:05:36;96038.13;;;18.45;62.76
21821;BME280;11073;48.586;12.066;2023-05-10T11:08:16;96040.31;;;18.62;62.11
21821;BME280;11073;48.586;12.066;2023-05-10T11:13:39;96022.09;;;19.18;61.79
21821;BME280;11073;48.586;12.066;2023-05-10T11:16:16;96023.41;;;19.89;61.42
21821;BME280;11073;48.586;12.066;2023-05-10T11:18:54;96025.56;;;20.64;60.32
21821;BME280;11073;48.586;12.066;2023-05-10T11:21:25;96029.13;;;21.18;59.11
21821;BME280;11073;48.586;12.066;2023-05-10T11:23:55;96023.91;;;21.08;57.77
21821;BME280;11073;48.586;12.066;2023-05-10T11:26:25;96020.50;;;20.80;56.66
21821;BME280;11073;48.586;12.066;2023-05-10T11:28:54;96018.31;;;20.69;56.43
21821;BME280;11073;48.586;12.066;2023-05-10T11:31:28;96016.88;;;20.35;55.65
21821;BME280;11073;48.586;12.066;2023-05-10T11:33:59;96016.44;;;20.19;55.18
21821;BME280;11073;48.586;12.066;2023-05-10T11:36:34;96018.38;;;20.19;54.84
21821;BME280;11073;48.586;12.066;2023-05-10T11:39:03;96014.28;;;20.30;54.59
21821;BME280;11073;48.586;12.066;2023-05-10T11:41:32;96015.06;;;20.44;54.35
21821;BME280;11073;48.586;12.066;2023-05-10T11:44:00;96023.91;;;20.63;53.86
21821;BME280;11073;48.586;12.066;2023-05-10T11:46:29;96015.31;;;20.79;52.99
21821;BME280;11073;48.586;12.066;2023-05-10T11:49:00;96016.28;;;21.14;52.77
21821;BME280;11073;48.586;12.066;2023-05-10T11:51:33;96012.13;;;21.47;51.97
21821;BME280;11073;48.586;12.066;2023-05-10T11:54:06;96009.41;;;21.65;51.70
21821;BME280;11073;48.586;12.066;2023-05-10T11:56:35;96020.75;;;21.63;51.43
21821;BME280;11073;48.586;12.066;2023-05-10T11:59:04;96014.09;;;21.64;51.15
21821;BME280;11073;48.586;12.066;2023-05-10T12:01:33;96024.31;;;21.64;51.03
21821;BME280;11073;48.586;12.066;2023-05-10T12:04:03;96018.66;;;21.60;50.65
21821;BME280;11073;48.586;12.066;2023-05-10T12:06:37;96012.50;;;21.72;50.91
21821;BME280;11073;48.586;12.066;2023-05-10T12:09:07;96014.91;;;21.65;50.25
21821;BME280;11073;48.586;12.066;2023-05-10T12:11:37;96019.16;;;21.71;50.21
21821;BME280;11073;48.586;12.066;2023-05-10T12:14:10;96016.25;;;21.76;50.30
21821;BME280;11073;48.586;12.066;2023-05-10T12:16:39;96027.97;;;21.99;49.95
21821;BME280;11073;48.586;12.066;2023-05-10T12:19:09;96016.03;;;22.12;49.28
21821;BME280;11073;48.586;12.066;2023-05-10T12:21:38;96023.69;;;22.24;48.65
21821;BME280;11073;48.586;12.066;2023-05-10T12:24:08;96020.06;;;22.23;48.61
21821;BME280;11073;48.586;12.066;2023-05-10T12:26:37;96023.19;;;22.56;48.17
21821;BME280;11073;48.586;12.066;2023-05-10T12:29:13;96019.94;;;22.89;47.61
21821;BME280;11073;48.586;12.066;2023-05-10T12:31:51;96023.31;;;23.03;46.27
21821;BME280;11073;48.586;12.066;2023-05-10T12:34:25;96017.28;;;23.10;45.92
21821;BME280;11073;48.586;12.066;2023-05-10T12:36:54;96018.28;;;22.88;45.06
21821;BME280;11073;48.586;12.066;2023-05-10T12:39:23;96026.56;;;22.79;44.43
21821;BME280;11073;48.586;12.066;2023-05-10T12:41:51;96032.25;;;22.83;44.21
21821;BME280;11073;48.586;12.066;2023-05-10T12:44:20;96034.97;;;23.09;43.80
21821;BME280;11073;48.586;12.066;2023-05-10T12:46:48;96030.44;;;23.13;43.55
21821;BME280;11073;48.586;12.066;2023-05-10T12:49:17;96031.56;;;23.21;43.12
21821;BME280;11073;48.586;12.066;2023-05-10T12:51:47;96036.09;;;23.17;42.78
21821;BME280;11073;48.586;12.066;2023-05-10T12:54:16;96035.78;;;23.09;42.92
21821;BME280;11073;48.586;12.066;2023-05-10T12:56:45;96039.06;;;23.11;42.33
21821;BME280;11073;48.586;12.066;2023-05-10T12:59:13;96037.44;;;22.93;42.30
21821;BME280;11073;48.586;12.066;2023-05-10T13:01:42;96030.16;;;22.63;42.31
21821;BME280;11073;48.586;12.066;2023-05-10T13:04:10;96030.31;;;22.40;43.01
21821;BME280;11073;48.586;12.066;2023-05-10T13:06:39;96028.69;;;22.13;43.28
21821;BME280;11073;48.586;12.066;2023-05-10T13:09:09;96035.75;;;21.88;43.17
21821;BME280;11073;48.586;12.066;2023-05-10T13:11:37;96028.56;;;21.70;43.47
21821;BME280;11073;48.586;12.066;2023-05-10T13:14:06;96017.66;;;21.56;43.75